Terminal Aerodrome Forecast
Issued by NWS

Home | Current Version | Previous Version | Text Only | Print | Product List | Glossary On
Versions: 1 2 3 4 5 6 7 8 9 10 11 12 13
493
FTUS44 KTSA 211728
TAFBVO
TAF
KBVO 211728Z 2118/2218 VRB06KT P6SM SKC
     FM220000 17005KT P6SM BKN250 PROB30 2209/2212 6SM -TSRA
      BKN050CB
     FM221200 20005KT 6SM -SHRA BKN050
      TEMPO 2214/2218 4SM -TSRA BR BKN035CB=

USA.gov is the U.S. government's official web portal to all federal, state and local government web resources and services.